createdAt,value
2022-08-11T00:00:37.787Z,99311.72
2022-08-11T00:02:15.302Z,99319.56
2022-08-11T00:03:52.092Z,99317.97
2022-08-11T00:05:26.032Z,99323.38
2022-08-11T00:07:04.219Z,99321.53
2022-08-11T00:08:38.673Z,99317.13
2022-08-11T00:10:15.916Z,99309.03
2022-08-11T00:11:52.239Z,99313.72
2022-08-11T00:13:32.756Z,99315.66
2022-08-11T00:15:07.199Z,99304.69
2022-08-11T00:16:42.023Z,99301.28
2022-08-11T00:18:15.739Z,99307.16
2022-08-11T00:20:14.007Z,99316.25
2022-08-11T00:22:05.236Z,99309.13
2022-08-11T00:23:44.886Z,99318.94
2022-08-11T00:25:22.242Z,99321.38
2022-08-11T00:26:56.285Z,99323.59
2022-08-11T00:28:31.359Z,99325.84
2022-08-11T00:30:06.219Z,99315.31
2022-08-11T00:31:43.905Z,99326.31
2022-08-11T00:33:18.937Z,99329.53
2022-08-11T00:34:52.772Z,99329.91
2022-08-11T00:36:52.814Z,99325.50
2022-08-11T00:38:30.748Z,99326.47
2022-08-11T00:40:07.281Z,99327.09
2022-08-11T00:41:46.725Z,99330.75
2022-08-11T00:43:43.202Z,99328.69
2022-08-11T00:45:25.133Z,99326.22
2022-08-11T00:47:11.053Z,99330.50
2022-08-11T00:48:55.074Z,99331.22
2022-08-11T00:50:38.965Z,99324.59
2022-08-11T00:52:25.302Z,99325.53
2022-08-11T00:54:10.145Z,99333.59
2022-08-11T00:56:21.556Z,99332.34
2022-08-11T00:58:51.282Z,99336.34
2022-08-11T01:00:28.465Z,99326.94
2022-08-11T01:02:15.992Z,99335.22
2022-08-11T01:04:11.150Z,99332.88
2022-08-11T01:06:09.412Z,99338.63
2022-08-11T01:08:11.163Z,99337.88
2022-08-11T01:10:07.127Z,99347.75
2022-08-11T01:12:14.532Z,99339.81
2022-08-11T01:14:33.731Z,99345.19
2022-08-11T01:16:46.900Z,99351.03
2022-08-11T01:18:57.849Z,99347.59
2022-08-11T01:21:05.151Z,99339.91
2022-08-11T01:23:25.795Z,99335.84
2022-08-11T01:25:56.963Z,99341.22
2022-08-11T01:27:54.817Z,99335.19
2022-08-11T01:30:02.970Z,99337.75
2022-08-11T01:32:03.644Z,99321.16
2022-08-11T01:34:28.064Z,99334.63
2022-08-11T01:36:34.314Z,99328.28
2022-08-11T01:38:31.278Z,99326.56
2022-08-11T01:40:45.972Z,99321.44
2022-08-11T01:43:16.934Z,99320.94
2022-08-11T01:45:16.251Z,99322.09
2022-08-11T01:46:55.688Z,99323.84
2022-08-11T01:48:43.476Z,99336.50
2022-08-11T01:50:24.514Z,99331.63
2022-08-11T01:52:13.336Z,99331.34
2022-08-11T01:53:58.543Z,99324.94
2022-08-11T01:55:44.824Z,99331.34
2022-08-11T01:57:35.968Z,99333.31
2022-08-11T01:59:16.058Z,99334.28
2022-08-11T02:00:59.565Z,99333.53
2022-08-11T02:02:47.932Z,99337.41
2022-08-11T02:04:32.491Z,99333.00
2022-08-11T02:06:30.224Z,99339.56
2022-08-11T02:08:12.314Z,99339.09
2022-08-11T02:10:35.554Z,99335.44
2022-08-11T02:12:17.799Z,99337.41
2022-08-11T02:13:58.709Z,99336.31
2022-08-11T02:15:44.883Z,99344.91
2022-08-11T02:17:24.451Z,99340.41
2022-08-11T02:19:37.714Z,99344.69
2022-08-11T02:21:34.804Z,99348.72
2022-08-11T02:24:05.744Z,99354.97
2022-08-11T02:25:44.358Z,99350.69
2022-08-11T02:27:23.641Z,99351.63
2022-08-11T02:29:10.991Z,99361.22
2022-08-11T02:32:24.540Z,99352.19
2022-08-11T02:33:27.431Z,99362.44
2022-08-11T02:35:20.365Z,99361.38
2022-08-11T02:37:01.326Z,99350.38
2022-08-11T02:38:47.176Z,99347.59
2022-08-11T02:40:31.451Z,99344.41
2022-08-11T02:42:36.182Z,99361.50
2022-08-11T02:44:26.005Z,99342.91
2022-08-11T02:46:18.110Z,99352.69
2022-08-11T02:48:19.731Z,99350.22
2022-08-11T02:50:06.682Z,99353.88
2022-08-11T02:51:56.012Z,99358.38
2022-08-11T02:53:38.573Z,99346.31
2022-08-11T02:55:56.575Z,99345.38
2022-08-11T02:57:29.366Z,99344.41
2022-08-11T02:59:26.399Z,99351.69
2022-08-11T03:01:11.721Z,99345.09
2022-08-11T03:02:55.489Z,99350.91
2022-08-11T03:04:38.824Z,99342.22
2022-08-11T03:06:21.449Z,99353.28
2022-08-11T03:08:10.902Z,99344.47
2022-08-11T03:09:51.113Z,99346.44
2022-08-11T03:12:01.527Z,99342.13
2022-08-11T03:14:06.695Z,99345.38
2022-08-11T03:16:06.803Z,99359.47
2022-08-11T03:17:51.176Z,99353.38
2022-08-11T03:19:31.319Z,99348.00
2022-08-11T03:21:11.109Z,99345.19
2022-08-11T03:22:58.158Z,99352.69
2022-08-11T03:24:43.749Z,99351.09
2022-08-11T03:26:27.903Z,99360.22
2022-08-11T03:28:10.101Z,99366.22
2022-08-11T03:30:02.969Z,99356.56
2022-08-11T03:31:42.695Z,99360.22
2022-08-11T03:33:41.719Z,99356.34
2022-08-11T03:35:21.386Z,99357.22
2022-08-11T03:37:34.682Z,99346.03
2022-08-11T03:39:17.901Z,99358.03
2022-08-11T03:42:01.319Z,99362.22
2022-08-11T03:43:30.057Z,99361.28
2022-08-11T03:45:25.333Z,99356.56
2022-08-11T03:47:14.828Z,99362.69
2022-08-11T03:48:55.688Z,99367.06
2022-08-11T03:50:55.733Z,99363.53
2022-08-11T03:52:43.737Z,99361.72
2022-08-11T03:54:27.968Z,99358.50
2022-08-11T03:56:45.173Z,99366.09
2022-08-11T03:58:49.281Z,99371.47
2022-08-11T04:00:40.883Z,99372.44
2022-08-11T04:02:42.037Z,99369.03
2022-08-11T04:04:56.151Z,99365.59
2022-08-11T04:07:17.760Z,99374.84
2022-08-11T04:09:38.972Z,99368.19
2022-08-11T04:12:00.263Z,99372.66
2022-08-11T04:14:19.792Z,99377.81
2022-08-11T04:16:26.095Z,99372.44
2022-08-11T04:18:35.460Z,99376.63
2022-08-11T04:20:44.640Z,99377.16
2022-08-11T04:23:07.122Z,99378.41
2022-08-11T04:25:31.579Z,99370.69
2022-08-11T04:27:37.290Z,99375.38
2022-08-11T04:29:35.903Z,99378.34
2022-08-11T04:31:50.841Z,99381.09
2022-08-11T04:33:42.309Z,99369.78
2022-08-11T04:35:27.812Z,99374.09
2022-08-11T04:37:34.948Z,99377.06
2022-08-11T04:39:20.249Z,99383.44
2022-08-11T04:42:04.388Z,99386.41
2022-08-11T04:44:13.043Z,99378.88
2022-08-11T04:46:19.100Z,99381.31
2022-08-11T04:48:33.167Z,99380.09
2022-08-11T04:51:08.764Z,99366.16
2022-08-11T04:53:29.196Z,99377.16
2022-08-11T04:55:56.419Z,99375.94
2022-08-11T04:58:06.408Z,99383.44
2022-08-11T05:00:14.765Z,99378.69
2022-08-11T05:02:16.700Z,99383.59
2022-08-11T05:04:43.628Z,99379.94
2022-08-11T05:06:58.727Z,99374.31
2022-08-11T05:09:17.977Z,99376.03
2022-08-11T05:11:08.399Z,99373.56
2022-08-11T05:12:47.522Z,99371.41
2022-08-11T05:15:05.684Z,99363.78
2022-08-11T05:17:04.942Z,99375.50
2022-08-11T05:19:04.313Z,99371.31
2022-08-11T05:21:05.221Z,99369.25
2022-08-11T05:23:03.004Z,99370.13
2022-08-11T05:25:01.324Z,99373.38
2022-08-11T05:27:03.375Z,99370.03
2022-08-11T05:28:59.567Z,99358.03
2022-08-11T05:30:54.314Z,99358.00
2022-08-11T05:32:59.398Z,99357.06
2022-08-11T05:34:56.943Z,99347.19
2022-08-11T05:36:42.177Z,99346.03
2022-08-11T05:38:39.462Z,99343.16
2022-08-11T05:40:32.479Z,99345.47
2022-08-11T05:42:29.988Z,99331.03
2022-08-11T05:44:23.184Z,99336.03
2022-08-11T05:46:17.744Z,99336.13
2022-08-11T05:48:08.545Z,99333.63
2022-08-11T05:50:01.545Z,99341.13
2022-08-11T05:52:05.451Z,99342.22
2022-08-11T05:54:28.426Z,99334.84
2022-08-11T05:56:20.240Z,99320.44
2022-08-11T05:57:57.741Z,99332.50
2022-08-11T05:59:32.673Z,99326.59
2022-08-11T06:01:06.215Z,99325.63
2022-08-11T06:02:43.841Z,99330.81
2022-08-11T06:04:21.054Z,99335.31
2022-08-11T06:05:54.952Z,99335.41
2022-08-11T06:07:48.578Z,99329.75
2022-08-11T06:09:29.429Z,99326.06
2022-08-11T06:11:06.484Z,99339.09
2022-08-11T06:12:40.972Z,99331.75
2022-08-11T06:14:15.826Z,99328.59
2022-08-11T06:15:52.220Z,99330.63
2022-08-11T06:17:38.647Z,99333.22
2022-08-11T06:19:14.324Z,99330.34
2022-08-11T06:20:49.810Z,99329.50
2022-08-11T06:22:24.152Z,99330.34
2022-08-11T06:24:00.822Z,99318.00
2022-08-11T06:25:35.921Z,99318.56
2022-08-11T06:27:13.053Z,99318.97
2022-08-11T06:28:49.358Z,99315.00
2022-08-11T06:30:35.298Z,99309.88
2022-08-11T06:32:13.558Z,99320.16
2022-08-11T06:33:57.483Z,99318.16
2022-08-11T06:35:40.465Z,99312.88
2022-08-11T06:37:23.972Z,99308.72
2022-08-11T06:39:08.802Z,99308.13
2022-08-11T06:41:11.619Z,99302.06
2022-08-11T06:42:56.238Z,99306.25
2022-08-11T06:44:34.149Z,99309.19
2022-08-11T06:46:11.126Z,99304.59
2022-08-11T06:47:48.246Z,99302.13
2022-08-11T06:49:41.183Z,99298.97
2022-08-11T06:51:15.394Z,99292.91
2022-08-11T06:52:48.130Z,99293.41
2022-08-11T06:54:24.055Z,99297.34
2022-08-11T06:56:18.157Z,99301.22
2022-08-11T06:58:09.257Z,99295.31
2022-08-11T07:00:00.341Z,99289.44
2022-08-11T07:01:49.299Z,99298.50
2022-08-11T07:03:24.576Z,99295.72
2022-08-11T07:05:02.102Z,99297.72
2022-08-11T07:07:10.097Z,99295.00
2022-08-11T07:09:38.101Z,99286.00
2022-08-11T07:12:25.923Z,99300.94
2022-08-11T07:15:12.809Z,99295.00
2022-08-11T07:18:00.577Z,99291.28
2022-08-11T07:20:47.289Z,99295.16
2022-08-11T07:23:05.855Z,99296.31
2022-08-11T07:25:02.710Z,99296.44
2022-08-11T07:26:54.828Z,99298.97
2022-08-11T07:28:47.737Z,99293.84
2022-08-11T07:30:21.124Z,99292.88
2022-08-11T07:31:55.489Z,99287.34
2022-08-11T07:34:07.401Z,99288.25
2022-08-11T07:35:34.712Z,99285.16
2022-08-11T07:37:13.734Z,99287.78
2022-08-11T07:38:51.500Z,99275.47
2022-08-11T07:40:25.771Z,99278.09
2022-08-11T07:42:00.873Z,99278.34
2022-08-11T07:43:36.946Z,99274.88
2022-08-11T07:45:29.085Z,99280.72
2022-08-11T07:47:20.321Z,99284.78
2022-08-11T07:49:11.894Z,99279.94
2022-08-11T07:51:04.488Z,99263.44
2022-08-11T07:52:40.833Z,99275.88
2022-08-11T07:54:17.233Z,99273.44
2022-08-11T07:55:54.282Z,99269.19
2022-08-11T07:58:14.740Z,99270.50
2022-08-11T08:00:03.514Z,99268.94
2022-08-11T08:02:08.086Z,99273.19
2022-08-11T08:04:01.220Z,99271.19
2022-08-11T08:05:53.462Z,99271.63
2022-08-11T08:07:44.700Z,99267.31
2022-08-11T08:09:41.698Z,99267.50
2022-08-11T08:11:33.737Z,99266.22
2022-08-11T08:13:25.960Z,99268.88
2022-08-11T08:15:17.500Z,99266.78
2022-08-11T08:17:08.753Z,99266.38
2022-08-11T08:18:42.975Z,99268.13
2022-08-11T08:20:20.453Z,99257.00
2022-08-11T08:21:54.529Z,99261.25
2022-08-11T08:23:40.649Z,99258.06
2022-08-11T08:25:17.097Z,99263.84
2022-08-11T08:27:00.804Z,99254.44
2022-08-11T08:28:35.112Z,99263.00
2022-08-11T08:30:27.176Z,99256.09
2022-08-11T08:32:02.078Z,99256.53
2022-08-11T08:33:37.064Z,99259.66
2022-08-11T08:35:12.491Z,99265.78
2022-08-11T08:36:47.977Z,99257.22
2022-08-11T08:38:21.528Z,99255.84
2022-08-11T08:39:55.784Z,99265.28
2022-08-11T08:41:33.723Z,99261.09
2022-08-11T08:43:10.952Z,99247.16
2022-08-11T08:44:48.417Z,99243.38
2022-08-11T08:46:31.516Z,99250.94
2022-08-11T08:48:09.802Z,99242.13
2022-08-11T08:49:50.991Z,99246.09
2022-08-11T08:51:58.780Z,99249.34
2022-08-11T08:53:34.655Z,99253.13
2022-08-11T08:55:11.303Z,99245.03
2022-08-11T08:56:47.253Z,99258.44
2022-08-11T08:58:23.085Z,99242.78
2022-08-11T08:59:58.002Z,99244.09
2022-08-11T09:01:37.337Z,99244.09
2022-08-11T09:03:40.579Z,99243.63
2022-08-11T09:05:09.150Z,99244.47
2022-08-11T09:06:44.468Z,99243.84
2022-08-11T09:08:24.660Z,99246.19
2022-08-11T09:10:00.389Z,99237.47
2022-08-11T09:11:53.501Z,99234.84
2022-08-11T09:13:28.915Z,99244.31
2022-08-11T09:15:06.140Z,99245.75
2022-08-11T09:16:40.539Z,99237.78
2022-08-11T09:18:14.484Z,99224.88
2022-08-11T09:19:56.457Z,99224.31
2022-08-11T09:21:44.622Z,99218.72
2022-08-11T09:25:55.030Z,99217.31
2022-08-11T09:27:28.810Z,99230.56
2022-08-11T09:29:05.738Z,99226.50
2022-08-11T09:30:42.847Z,99235.38
2022-08-11T09:32:20.608Z,99227.19
2022-08-11T09:33:56.089Z,99235.38
2022-08-11T09:35:30.801Z,99225.84
2022-08-11T09:37:54.584Z,99229.13
2022-08-11T09:39:35.855Z,99224.94
2022-08-11T09:41:10.944Z,99219.91
2022-08-11T09:43:02.624Z,99215.28
2022-08-11T09:44:49.861Z,99214.88
2022-08-11T09:46:28.749Z,99201.53
2022-08-11T09:48:05.342Z,99209.72
2022-08-11T09:49:39.659Z,99197.88
2022-08-11T09:51:14.234Z,99205.00
2022-08-11T09:53:16.804Z,99207.13
2022-08-11T09:54:48.302Z,99201.31
2022-08-11T09:56:42.930Z,99212.03
2022-08-11T09:58:43.148Z,99214.28
2022-08-11T10:00:15.739Z,99210.34
2022-08-11T10:01:52.120Z,99205.72
2022-08-11T10:03:27.907Z,99205.44
2022-08-11T10:05:16.033Z,99205.88
2022-08-11T10:07:07.195Z,99204.41
2022-08-11T10:08:41.903Z,99196.03
2022-08-11T10:10:15.489Z,99201.66
2022-08-11T10:11:55.399Z,99199.38
2022-08-11T10:14:33.623Z,99193.63
2022-08-11T10:16:00.218Z,99198.34
2022-08-11T10:18:06.034Z,99195.81
2022-08-11T10:19:39.758Z,99193.88
2022-08-11T10:21:16.596Z,99201.47
2022-08-11T10:23:07.258Z,99198.28
2022-08-11T10:25:02.682Z,99197.72
2022-08-11T10:26:54.568Z,99191.88
2022-08-11T10:28:36.637Z,99198.81
2022-08-11T10:30:35.960Z,99195.44
2022-08-11T10:32:31.642Z,99198.84
2022-08-11T10:34:05.723Z,99189.91
2022-08-11T10:35:43.977Z,99193.69
2022-08-11T10:37:19.040Z,99177.31
2022-08-11T10:38:52.439Z,99186.47
2022-08-11T10:40:26.460Z,99189.38
2022-08-11T10:42:41.354Z,99190.41
2022-08-11T10:44:15.856Z,99179.03
2022-08-11T10:46:06.987Z,99187.22
2022-08-11T10:47:48.981Z,99179.38
2022-08-11T10:49:24.910Z,99176.63
2022-08-11T10:51:13.921Z,99178.69
2022-08-11T10:53:07.540Z,99184.72
2022-08-11T10:55:00.043Z,99181.81
2022-08-11T10:56:55.141Z,99180.97
2022-08-11T10:58:49.562Z,99162.13
2022-08-11T11:00:24.434Z,99168.19
2022-08-11T11:02:02.173Z,99169.47
2022-08-11T11:03:38.269Z,99161.00
2022-08-11T11:05:16.931Z,99159.97
2022-08-11T11:06:55.290Z,99163.94
2022-08-11T11:08:49.268Z,99171.41
2022-08-11T11:10:26.111Z,99160.94
2022-08-11T11:12:21.845Z,99157.03
2022-08-11T11:14:13.553Z,99157.75
2022-08-11T11:16:06.684Z,99153.06
2022-08-11T11:17:57.650Z,99156.47
2022-08-11T11:19:32.998Z,99157.28
2022-08-11T11:21:08.967Z,99156.09
2022-08-11T11:22:42.481Z,99152.09
2022-08-11T11:24:37.442Z,99153.47
2022-08-11T11:26:39.775Z,99154.06
2022-08-11T11:28:38.006Z,99150.56
2022-08-11T11:30:15.209Z,99162.97
2022-08-11T11:31:58.345Z,99147.56
2022-08-11T11:34:06.767Z,99149.53
2022-08-11T11:35:57.127Z,99148.19
2022-08-11T11:37:33.907Z,99143.56
2022-08-11T11:39:08.907Z,99147.88
2022-08-11T11:40:43.103Z,99154.63
2022-08-11T11:42:18.494Z,99158.00
2022-08-11T11:43:52.400Z,99152.19
2022-08-11T11:45:26.931Z,99152.25
2022-08-11T11:47:01.710Z,99151.47
2022-08-11T11:48:36.886Z,99149.28
2022-08-11T11:50:10.891Z,99143.56
2022-08-11T11:51:50.046Z,99129.91
2022-08-11T11:53:24.547Z,99142.38
2022-08-11T11:54:59.900Z,99134.19
2022-08-11T11:56:34.049Z,99127.69
2022-08-11T11:58:25.828Z,99131.91
2022-08-11T12:00:17.200Z,99135.09
2022-08-11T12:01:51.440Z,99125.59
2022-08-11T12:03:27.642Z,99129.81
2022-08-11T12:05:02.708Z,99134.25
2022-08-11T12:06:37.659Z,99129.38
2022-08-11T12:08:16.608Z,99128.78
2022-08-11T12:09:50.632Z,99125.16
2022-08-11T12:11:43.498Z,99131.75
2022-08-11T12:13:36.435Z,99126.97
2022-08-11T12:15:11.269Z,99123.59
2022-08-11T12:16:47.379Z,99131.84
2022-08-11T12:18:21.290Z,99111.09
2022-08-11T12:19:54.899Z,99115.50
2022-08-11T12:21:32.153Z,99112.06
2022-08-11T12:23:23.011Z,99114.97
2022-08-11T12:25:23.987Z,99122.25
2022-08-11T12:27:17.798Z,99115.69
2022-08-11T12:28:51.845Z,99124.19
2022-08-11T12:30:25.809Z,99118.50
2022-08-11T12:32:00.558Z,99116.31
2022-08-11T12:33:37.414Z,99111.16
2022-08-11T12:35:16.896Z,99111.22
2022-08-11T12:36:57.014Z,99107.69
2022-08-11T12:38:32.176Z,99112.19
2022-08-11T12:41:11.801Z,99105.88
2022-08-11T12:42:55.476Z,99097.00
2022-08-11T12:44:48.232Z,99100.75
2022-08-11T12:46:24.926Z,99079.44
2022-08-11T12:49:00.864Z,99082.28
2022-08-11T12:50:34.326Z,99083.09
2022-08-11T12:52:15.967Z,99079.16
2022-08-11T12:53:57.817Z,99080.00
2022-08-11T12:56:03.641Z,99077.94
2022-08-11T12:58:00.184Z,99073.88
2022-08-11T12:59:52.102Z,99073.41
2022-08-11T13:01:43.470Z,99068.91
2022-08-11T13:03:37.644Z,99072.53
2022-08-11T13:05:14.787Z,99074.16
2022-08-11T13:06:48.619Z,99063.56
2022-08-11T13:08:25.078Z,99072.03
2022-08-11T13:09:59.658Z,99072.72
2022-08-11T13:11:55.682Z,99078.84
2022-08-11T13:13:52.496Z,99072.66
2022-08-11T13:15:26.356Z,99073.88
2022-08-11T13:17:18.708Z,99070.03
2022-08-11T13:18:53.661Z,99074.47
2022-08-11T13:20:28.099Z,99070.78
2022-08-11T13:22:02.622Z,99078.56
2022-08-11T13:23:37.845Z,99079.19
2022-08-11T13:25:14.900Z,99065.59
2022-08-11T13:26:50.745Z,99061.09
2022-08-11T13:28:25.044Z,99072.28
2022-08-11T13:30:13.126Z,99071.69
2022-08-11T13:31:47.362Z,99060.06
2022-08-11T13:33:21.105Z,99044.03
2022-08-11T13:34:55.247Z,99058.28
2022-08-11T13:36:29.183Z,99061.53
2022-08-11T13:38:18.593Z,99057.84
2022-08-11T13:39:53.981Z,99058.53
2022-08-11T13:41:42.091Z,99061.44
2022-08-11T13:43:18.376Z,99053.50
2022-08-11T13:44:52.374Z,99058.72
2022-08-11T13:46:28.723Z,99051.66
2022-08-11T13:48:04.885Z,99050.13
2022-08-11T13:49:41.168Z,99042.94
2022-08-11T13:51:34.989Z,99044.63
2022-08-11T13:53:09.283Z,99036.75
2022-08-11T13:54:44.720Z,99042.47
2022-08-11T13:56:18.237Z,99042.13
2022-08-11T13:58:07.597Z,99042.44
2022-08-11T13:59:56.206Z,99036.28
2022-08-11T14:02:19.221Z,99046.47
2022-08-11T14:04:29.663Z,99047.09
2022-08-11T14:05:29.598Z,99036.25
2022-08-11T14:07:07.882Z,99040.25
2022-08-11T14:08:46.735Z,99042.13
2022-08-11T14:10:23.125Z,99039.72
2022-08-11T14:12:24.354Z,99039.03
2022-08-11T14:13:58.805Z,99046.00
2022-08-11T14:15:36.288Z,99033.28
2022-08-11T14:17:11.043Z,99041.47
2022-08-11T14:18:50.863Z,99049.56
2022-08-11T14:20:39.565Z,99048.84
2022-08-11T14:22:15.772Z,99041.56
2022-08-11T14:23:50.935Z,99050.97
2022-08-11T14:25:59.571Z,99046.84
2022-08-11T14:28:30.078Z,99041.28
2022-08-11T14:29:21.584Z,99057.28
2022-08-11T14:31:00.527Z,99041.50
2022-08-11T14:32:35.500Z,99043.34
2022-08-11T14:34:28.666Z,99047.69
2022-08-11T14:36:06.432Z,99062.72
2022-08-11T14:37:41.145Z,99047.69
2022-08-11T14:39:17.279Z,99052.75
2022-08-11T14:41:08.583Z,99045.25
2022-08-11T14:42:59.497Z,99048.53
2022-08-11T14:44:53.390Z,99039.19
2022-08-11T14:46:46.085Z,99051.78
2022-08-11T14:48:19.653Z,99045.97
2022-08-11T14:50:04.997Z,99035.94
2022-08-11T14:51:47.135Z,99043.56
2022-08-11T14:53:24.293Z,99041.50
2022-08-11T14:55:15.370Z,99052.41
2022-08-11T14:56:48.272Z,99050.00
2022-08-11T14:58:24.523Z,99035.75
2022-08-11T15:00:01.631Z,99032.84
2022-08-11T15:01:53.976Z,99039.13
2022-08-11T15:03:30.224Z,99038.56
2022-08-11T15:05:05.106Z,99037.72
2022-08-11T15:06:39.120Z,99034.94
2022-08-11T15:08:15.723Z,99028.88
2022-08-11T15:11:59.399Z,99040.75
2022-08-11T15:13:33.533Z,99042.53
2022-08-11T15:15:26.204Z,99038.22
2022-08-11T15:17:08.685Z,99044.88
2022-08-11T15:18:42.273Z,99039.13
2022-08-11T15:20:35.608Z,99037.50
2022-08-11T15:22:28.238Z,99033.59
2022-08-11T15:24:20.602Z,99034.78
2022-08-11T15:25:58.962Z,99029.34
2022-08-11T15:27:52.424Z,99036.69
2022-08-11T15:29:48.288Z,99042.91
2022-08-11T15:31:37.547Z,99032.19
2022-08-11T15:33:33.203Z,99032.50
2022-08-11T15:35:24.974Z,99031.53
2022-08-11T15:37:17.953Z,99032.22
2022-08-11T15:38:56.297Z,99023.69
2022-08-11T15:40:49.940Z,99021.31
2022-08-11T15:42:40.489Z,99021.16
2022-08-11T15:45:01.137Z,99015.09
2022-08-11T15:46:33.748Z,99012.19
2022-08-11T15:48:10.671Z,99011.19
2022-08-11T15:50:11.301Z,99008.88
2022-08-11T15:51:46.708Z,99010.56
2022-08-11T15:53:28.236Z,99017.22
2022-08-11T15:55:03.680Z,99009.56
2022-08-11T15:56:41.076Z,99020.16
2022-08-11T15:58:33.201Z,99016.72
2022-08-11T16:00:25.873Z,99028.34
2022-08-11T16:02:27.465Z,99030.06
2022-08-11T16:04:14.479Z,99028.38
2022-08-11T16:05:53.130Z,99038.22
2022-08-11T16:07:31.158Z,99033.13
2022-08-11T16:09:08.923Z,99025.81
2022-08-11T16:10:56.312Z,99023.31
2022-08-11T16:12:33.119Z,99031.25
2022-08-11T16:14:25.908Z,99035.34
2022-08-11T16:16:15.103Z,99040.47
2022-08-11T16:17:51.717Z,99035.53
2022-08-11T16:19:28.949Z,99040.66
2022-08-11T16:21:04.123Z,99033.53
2022-08-11T16:22:40.516Z,99035.41
2022-08-11T16:26:38.715Z,99029.94
2022-08-11T16:27:08.056Z,99037.94
2022-08-11T16:28:07.266Z,99034.91
2022-08-11T16:29:43.876Z,99038.13
2022-08-11T16:31:18.173Z,99039.34
2022-08-11T16:32:53.863Z,99038.63
2022-08-11T16:34:44.999Z,99031.84
2022-08-11T16:36:38.786Z,99034.56
2022-08-11T16:38:31.722Z,99027.25
2022-08-11T16:40:07.175Z,99041.69
2022-08-11T16:42:00.977Z,99037.28
2022-08-11T16:43:57.915Z,99038.31
2022-08-11T16:45:48.939Z,99034.25
2022-08-11T16:48:03.525Z,99037.78
2022-08-11T16:49:21.126Z,99029.78
2022-08-11T16:50:54.703Z,99038.97
2022-08-11T16:52:29.432Z,99042.72
2022-08-11T16:54:05.274Z,99042.03
2022-08-11T16:55:52.112Z,99043.53
2022-08-11T16:57:44.985Z,99045.75
2022-08-11T16:59:22.397Z,99055.28
2022-08-11T17:00:55.088Z,99054.25
2022-08-11T17:02:51.626Z,99050.50
2022-08-11T17:04:55.036Z,99048.09
2022-08-11T17:06:42.214Z,99056.59
2022-08-11T17:08:33.347Z,99042.66
2022-08-11T17:10:38.277Z,99056.59
2022-08-11T17:12:44.643Z,99053.53
2022-08-11T17:14:35.579Z,99054.88
2022-08-11T17:16:13.546Z,99059.94
2022-08-11T17:17:46.710Z,99054.88
2022-08-11T17:20:40.017Z,99055.50
2022-08-11T17:21:23.964Z,99059.56
2022-08-11T17:23:15.785Z,99062.09
2022-08-11T17:24:51.780Z,99060.53
2022-08-11T17:26:51.593Z,99068.00
2022-08-11T17:28:25.276Z,99068.88
2022-08-11T17:30:02.856Z,99067.16
2022-08-11T17:31:53.402Z,99074.31
2022-08-11T17:33:43.895Z,99077.19
2022-08-11T17:35:31.256Z,99074.78
2022-08-11T17:37:06.062Z,99079.53
2022-08-11T17:38:40.165Z,99072.41
2022-08-11T17:40:18.550Z,99075.13
2022-08-11T17:42:11.047Z,99081.88
2022-08-11T17:44:02.377Z,99091.38
2022-08-11T17:45:53.148Z,99093.72
2022-08-11T17:47:45.918Z,99078.88
2022-08-11T17:49:21.544Z,99082.78
2022-08-11T17:50:57.059Z,99095.69
2022-08-11T17:52:49.407Z,99094.28
2022-08-11T17:54:41.971Z,99094.13
2022-08-11T17:56:36.547Z,99096.00
2022-08-11T17:58:27.839Z,99096.59
2022-08-11T18:00:03.513Z,99094.72
2022-08-11T18:01:47.239Z,99093.13
2022-08-11T18:03:33.047Z,99093.09
2022-08-11T18:05:12.206Z,99101.06
2022-08-11T18:06:48.203Z,99097.84
2022-08-11T18:08:40.138Z,99091.72
2022-08-11T18:10:31.264Z,99101.19
2022-08-11T18:12:25.388Z,99101.50
2022-08-11T18:14:17.570Z,99109.28
2022-08-11T18:16:09.725Z,99101.28
2022-08-11T18:18:00.509Z,99096.97
2022-08-11T18:19:51.627Z,99104.88
2022-08-11T18:21:47.027Z,99101.84
2022-08-11T18:23:58.080Z,99097.34
2022-08-11T18:25:52.046Z,99106.66
2022-08-11T18:27:47.041Z,99107.09
2022-08-11T18:29:41.718Z,99107.78
2022-08-11T18:31:35.979Z,99098.78
2022-08-11T18:35:40.436Z,99112.78
2022-08-11T18:37:34.505Z,99110.81
2022-08-11T18:39:29.064Z,99116.06
2022-08-11T18:41:21.060Z,99112.50
2022-08-11T18:43:16.178Z,99119.94
2022-08-11T18:45:09.750Z,99123.94
2022-08-11T18:47:08.077Z,99114.00
2022-08-11T18:49:05.829Z,99118.09
2022-08-11T18:51:00.682Z,99106.66
2022-08-11T18:53:11.750Z,99129.13
2022-08-11T18:55:05.784Z,99128.13
2022-08-11T18:57:04.044Z,99129.16
2022-08-11T18:59:00.116Z,99132.03
2022-08-11T19:00:53.467Z,99129.06
2022-08-11T19:02:48.947Z,99124.97
2022-08-11T19:04:42.746Z,99134.88
2022-08-11T19:06:40.189Z,99141.31
2022-08-11T19:08:32.364Z,99145.97
2022-08-11T19:10:24.322Z,99137.88
2022-08-11T19:12:17.680Z,99143.00
2022-08-11T19:14:11.282Z,99136.16
2022-08-11T19:16:05.593Z,99141.41
2022-08-11T19:18:00.454Z,99149.66
2022-08-11T19:19:53.750Z,99148.53
2022-08-11T19:21:46.590Z,99146.59
2022-08-11T19:23:52.481Z,99153.56
2022-08-11T19:25:45.836Z,99157.13
2022-08-11T19:27:39.425Z,99155.22
2022-08-11T19:30:06.927Z,99163.63
2022-08-11T19:31:45.479Z,99165.63
2022-08-11T19:33:57.412Z,99173.00
2022-08-11T19:35:47.781Z,99168.75
2022-08-11T19:37:44.485Z,99171.84
2022-08-11T19:39:37.127Z,99167.72
2022-08-11T19:41:56.530Z,99174.41
2022-08-11T19:43:42.384Z,99170.56
2022-08-11T19:45:35.602Z,99177.50
2022-08-11T19:47:27.824Z,99177.22
2022-08-11T19:49:19.589Z,99183.47
2022-08-11T19:51:12.539Z,99185.47
2022-08-11T19:53:03.651Z,99189.44
2022-08-11T19:55:09.212Z,99188.00
2022-08-11T19:57:01.593Z,99175.91
2022-08-11T19:58:54.665Z,99180.56
2022-08-11T20:00:47.643Z,99184.22
2022-08-11T20:02:42.436Z,99177.78
2022-08-11T20:04:33.416Z,99186.59
2022-08-11T20:06:27.012Z,99172.72
2022-08-11T20:08:18.976Z,99168.59
2022-08-11T20:10:10.335Z,99186.28
2022-08-11T20:12:04.494Z,99186.78
2022-08-11T20:13:58.682Z,99189.06
2022-08-11T20:15:51.745Z,99186.28
2022-08-11T20:17:45.323Z,99184.34
2022-08-11T20:19:55.935Z,99180.38
2022-08-11T20:21:48.944Z,99185.06
2022-08-11T20:23:41.210Z,99181.94
2022-08-11T20:25:32.649Z,99192.25
2022-08-11T20:27:25.778Z,99187.56
2022-08-11T20:29:18.633Z,99197.75
2022-08-11T20:31:12.136Z,99198.34
2022-08-11T20:33:03.240Z,99205.41
2022-08-11T20:34:56.127Z,99188.31
2022-08-11T20:36:54.467Z,99202.47
2022-08-11T20:38:49.982Z,99196.13
2022-08-11T20:40:43.755Z,99196.41
2022-08-11T20:42:37.125Z,99200.06
2022-08-11T20:44:29.261Z,99201.81
2022-08-11T20:46:22.962Z,99209.13
2022-08-11T20:48:17.400Z,99213.06
2022-08-11T20:50:09.263Z,99215.88
2022-08-11T20:52:10.760Z,99214.41
2022-08-11T20:54:05.453Z,99214.91
2022-08-11T20:55:58.239Z,99224.09
2022-08-11T20:58:03.895Z,99213.09
2022-08-11T20:59:57.124Z,99220.94
2022-08-11T21:01:53.703Z,99224.09
2022-08-11T21:03:54.691Z,99228.53
2022-08-11T21:06:05.421Z,99226.22
2022-08-11T21:08:07.341Z,99228.91
2022-08-11T21:10:09.442Z,99229.13
2022-08-11T21:12:01.567Z,99224.63
2022-08-11T21:13:58.110Z,99234.50
2022-08-11T21:16:01.837Z,99230.13
2022-08-11T21:18:00.358Z,99230.44
2022-08-11T21:20:07.774Z,99242.19
2022-08-11T21:22:03.816Z,99249.00
2022-08-11T21:24:00.216Z,99246.28
2022-08-11T21:25:55.652Z,99249.94
2022-08-11T21:27:51.700Z,99250.63